createdAt,value
2019-04-11T00:00:19.659Z,101610.95
2019-04-11T00:02:49.048Z,101607.61
2019-04-11T00:05:18.850Z,101611.16
2019-04-11T00:07:48.839Z,101618.20
2019-04-11T00:10:18.020Z,101614.31
2019-04-11T00:12:46.564Z,101610.59
2019-04-11T00:15:16.046Z,101616.91
2019-04-11T00:17:45.923Z,101619.81
2019-04-11T00:20:14.643Z,101615.81
2019-04-11T00:22:43.742Z,101623.06
2019-04-11T00:25:13.511Z,101630.53
2019-04-11T00:27:43.359Z,101627.11
2019-04-11T00:30:12.325Z,101633.61
2019-04-11T00:32:41.447Z,101631.88
2019-04-11T00:35:11.122Z,101639.07
2019-04-11T00:37:39.851Z,101637.11
2019-04-11T00:40:08.977Z,101640.00
2019-04-11T00:42:38.753Z,101643.33
2019-04-11T00:45:07.685Z,101636.38
2019-04-11T00:47:38.187Z,101642.46
2019-04-11T00:50:07.360Z,101643.07
2019-04-11T00:52:37.126Z,101641.59
2019-04-11T00:55:07.169Z,101645.17
2019-04-11T00:57:36.984Z,101640.62
2019-04-11T01:00:07.163Z,101643.69
2019-04-11T01:02:35.960Z,101642.68
2019-04-11T01:05:05.826Z,101650.23
2019-04-11T01:07:35.326Z,101646.92
2019-04-11T01:10:06.672Z,101646.78
2019-04-11T01:12:36.462Z,101644.55
2019-04-11T01:15:08.290Z,101652.56
2019-04-11T01:17:37.110Z,101649.13
2019-04-11T01:20:07.440Z,101643.92
2019-04-11T01:22:36.232Z,101647.89
2019-04-11T01:25:06.562Z,101654.75
2019-04-11T01:27:36.177Z,101653.16
2019-04-11T01:30:06.582Z,101653.77
2019-04-11T01:32:35.173Z,101655.38
2019-04-11T01:35:04.795Z,101654.81
2019-04-11T01:37:34.236Z,101648.48
2019-04-11T01:40:02.778Z,101654.69
2019-04-11T01:42:31.764Z,101660.09
2019-04-11T01:45:01.066Z,101656.17
2019-04-11T01:47:37.382Z,101662.43
2019-04-11T01:50:06.375Z,101668.33
2019-04-11T01:52:34.856Z,101667.34
2019-04-11T01:55:03.959Z,101665.82
2019-04-11T01:57:32.445Z,101664.41
2019-04-11T02:00:01.995Z,101667.19
2019-04-11T02:02:44.449Z,101668.23
2019-04-11T02:05:14.814Z,101668.92
2019-04-11T02:07:43.271Z,101667.34
2019-04-11T02:10:12.716Z,101673.51
2019-04-11T02:12:41.558Z,101678.94
2019-04-11T02:15:10.384Z,101685.75
2019-04-11T02:17:39.128Z,101679.46
2019-04-11T02:20:09.108Z,101672.06
2019-04-11T02:22:50.994Z,101685.29
2019-04-11T02:25:36.979Z,101685.29
2019-04-11T02:28:08.495Z,101686.45
2019-04-11T02:30:41.037Z,101687.45
2019-04-11T02:33:11.322Z,101683.58
2019-04-11T02:35:39.874Z,101683.95
2019-04-11T02:38:11.980Z,101688.86
2019-04-11T02:40:41.111Z,101697.31
2019-04-11T02:43:11.769Z,101695.31
2019-04-11T02:45:52.535Z,101694.11
2019-04-11T02:48:13.205Z,101693.55
2019-04-11T02:50:43.112Z,101699.44
2019-04-11T02:53:12.540Z,101693.70
2019-04-11T02:55:43.598Z,101696.94
2019-04-11T02:58:12.472Z,101696.88
2019-04-11T03:00:42.256Z,101697.62
2019-04-11T03:03:12.826Z,101695.36
2019-04-11T03:05:41.899Z,101696.67
2019-04-11T03:08:14.576Z,101699.11
2019-04-11T03:10:42.868Z,101707.51
2019-04-11T03:13:12.683Z,101700.56
2019-04-11T03:15:56.968Z,101710.53
2019-04-11T03:18:14.538Z,101706.86
2019-04-11T03:20:52.451Z,101706.78
2019-04-11T03:23:16.095Z,101707.47
2019-04-11T03:25:44.728Z,101705.74
2019-04-11T03:28:18.546Z,101710.08
2019-04-11T03:31:04.162Z,101713.09
2019-04-11T03:34:01.298Z,101714.91
2019-04-11T03:36:37.579Z,101718.33
2019-04-11T03:38:36.783Z,101723.26
2019-04-11T03:41:00.440Z,101719.19
2019-04-11T03:43:33.030Z,101720.48
2019-04-11T03:46:04.041Z,101729.20
2019-04-11T03:48:29.064Z,101724.19
2019-04-11T03:50:46.818Z,101724.07
2019-04-11T03:53:17.290Z,101724.49
2019-04-11T03:55:47.465Z,101726.70
2019-04-11T03:58:17.429Z,101728.27
2019-04-11T04:00:46.850Z,101728.25
2019-04-11T04:03:18.077Z,101726.56
2019-04-11T04:05:48.678Z,101728.70
2019-04-11T04:08:17.933Z,101727.33
2019-04-11T04:11:06.921Z,101736.50
2019-04-11T04:13:38.980Z,101743.14
2019-04-11T04:16:18.658Z,101744.67
2019-04-11T04:18:45.690Z,101742.99
2019-04-11T04:21:18.886Z,101740.93
2019-04-11T04:23:49.490Z,101754.47
2019-04-11T04:26:19.174Z,101753.72
2019-04-11T04:28:48.383Z,101752.14
2019-04-11T04:31:18.441Z,101757.21
2019-04-11T04:33:47.646Z,101758.14
2019-04-11T04:36:18.284Z,101755.13
2019-04-11T04:38:48.722Z,101759.02
2019-04-11T04:41:29.769Z,101764.12
2019-04-11T04:43:50.437Z,101769.53
2019-04-11T04:46:35.206Z,101766.94
2019-04-11T04:48:51.292Z,101776.81
2019-04-11T04:51:20.572Z,101772.23
2019-04-11T04:53:50.232Z,101771.52
2019-04-11T04:56:24.012Z,101776.50
2019-04-11T04:58:50.768Z,101782.23
2019-04-11T05:01:21.212Z,101785.28
2019-04-11T05:03:51.007Z,101790.92
2019-04-11T05:06:20.692Z,101789.90
2019-04-11T05:08:49.438Z,101789.83
2019-04-11T05:11:18.091Z,101788.47
2019-04-11T05:13:49.267Z,101791.41
2019-04-11T05:16:17.946Z,101790.05
2019-04-11T05:18:46.773Z,101796.28
2019-04-11T05:21:15.471Z,101800.56
2019-04-11T05:23:43.974Z,101794.07
2019-04-11T05:26:12.424Z,101803.37
2019-04-11T05:28:40.966Z,101798.05
2019-04-11T05:31:10.169Z,101802.25
2019-04-11T05:33:39.140Z,101802.77
2019-04-11T05:36:08.158Z,101808.02
2019-04-11T05:38:37.937Z,101813.83
2019-04-11T05:41:09.683Z,101814.38
2019-04-11T05:43:38.563Z,101814.07
2019-04-11T05:46:23.277Z,101820.96
2019-04-11T05:48:47.799Z,101822.04
2019-04-11T05:51:21.533Z,101827.36
2019-04-11T05:53:48.936Z,101830.57
2019-04-11T05:56:19.263Z,101827.21
2019-04-11T05:58:49.420Z,101829.88
2019-04-11T06:01:36.304Z,101836.71
2019-04-11T06:04:07.811Z,101834.84
2019-04-11T06:06:58.341Z,101834.00
2019-04-11T06:09:32.934Z,101838.13
2019-04-11T06:12:07.358Z,101837.09
2019-04-11T06:14:43.747Z,101842.83
2019-04-11T06:17:14.709Z,101839.65
2019-04-11T06:19:48.290Z,101843.40
2019-04-11T06:22:19.670Z,101843.09
2019-04-11T06:24:52.259Z,101849.78
2019-04-11T06:27:28.749Z,101843.25
2019-04-11T06:30:05.505Z,101849.20
2019-04-11T06:32:50.511Z,101855.56
2019-04-11T06:35:24.102Z,101857.67
2019-04-11T06:38:00.705Z,101858.44
2019-04-11T06:40:46.095Z,101854.28
2019-04-11T06:43:28.445Z,101856.90
2019-04-11T06:46:11.155Z,101859.11
2019-04-11T06:48:45.447Z,101863.88
2019-04-11T06:51:18.374Z,101867.98
2019-04-11T06:53:48.521Z,101856.81
2019-04-11T06:56:25.356Z,101859.12
2019-04-11T06:58:56.761Z,101860.70
2019-04-11T07:01:28.021Z,101861.56
2019-04-11T07:04:01.046Z,101862.88
2019-04-11T07:06:33.636Z,101871.73
2019-04-11T07:09:07.394Z,101871.96
2019-04-11T07:11:44.736Z,101874.02
2019-04-11T07:14:31.300Z,101869.12
2019-04-11T07:17:18.881Z,101871.09
2019-04-11T07:20:06.635Z,101877.61
2019-04-11T07:22:53.454Z,101877.71
2019-04-11T07:25:23.651Z,101877.19
2019-04-11T07:28:10.106Z,101882.89
2019-04-11T07:30:56.408Z,101874.02
2019-04-11T07:33:33.282Z,101884.55
2019-04-11T07:36:21.028Z,101881.88
2019-04-11T07:38:59.926Z,101881.84
2019-04-11T07:41:29.987Z,101893.41
2019-04-11T07:44:00.683Z,101885.92
2019-04-11T07:46:49.571Z,101888.47
2019-04-11T07:49:19.927Z,101891.80
2019-04-11T07:51:50.768Z,101896.19
2019-04-11T07:54:20.338Z,101888.14
2019-04-11T07:56:53.594Z,101889.67
2019-04-11T07:59:41.900Z,101893.50
2019-04-11T08:02:16.025Z,101890.80
2019-04-11T08:04:58.438Z,101900.09
2019-04-11T08:07:38.039Z,101896.73
2019-04-11T08:10:14.603Z,101901.15
2019-04-11T08:12:43.913Z,101895.70
2019-04-11T08:15:31.486Z,101892.67
2019-04-11T08:18:02.009Z,101891.48
2019-04-11T08:20:47.841Z,101889.07
2019-04-11T08:23:19.331Z,101891.48
2019-04-11T08:25:49.663Z,101896.63
2019-04-11T08:28:18.532Z,101896.59
2019-04-11T08:30:55.262Z,101885.55
2019-04-11T08:33:26.657Z,101892.68
2019-04-11T08:35:58.324Z,101885.42
2019-04-11T08:38:28.928Z,101896.71
2019-04-11T08:41:11.463Z,101895.47
2019-04-11T08:43:41.405Z,101897.95
2019-04-11T08:46:18.450Z,101888.42
2019-04-11T08:48:49.038Z,101898.23
2019-04-11T08:51:19.402Z,101896.76
2019-04-11T08:53:55.242Z,101904.94
2019-04-11T08:56:23.772Z,101910.70
2019-04-11T08:59:33.887Z,101907.84
2019-04-11T09:02:02.770Z,101908.38
2019-04-11T09:04:46.234Z,101902.64
2019-04-11T09:07:17.063Z,101902.86
2019-04-11T09:09:49.970Z,101905.41
2019-04-11T09:12:18.496Z,101894.03
2019-04-11T09:14:52.646Z,101898.30
2019-04-11T09:17:30.386Z,101898.30
2019-04-11T09:20:16.259Z,101898.84
2019-04-11T09:22:47.142Z,101899.03
2019-04-11T09:25:17.450Z,101895.27
2019-04-11T09:28:05.366Z,101899.35
2019-04-11T09:30:38.932Z,101896.33
2019-04-11T09:33:25.376Z,101894.20
2019-04-11T09:36:11.728Z,101897.30
2019-04-11T09:38:44.624Z,101897.27
2019-04-11T09:41:14.882Z,101902.89
2019-04-11T09:43:44.305Z,101895.44
2019-04-11T09:46:30.829Z,101889.69
2019-04-11T09:49:04.507Z,101895.63
2019-04-11T09:51:52.022Z,101889.52
2019-04-11T09:54:32.259Z,101890.56
2019-04-11T09:57:14.853Z,101889.88
2019-04-11T09:59:45.545Z,101890.70
2019-04-11T10:02:33.924Z,101896.78
2019-04-11T10:05:05.319Z,101884.39
2019-04-11T10:07:52.332Z,101897.76
2019-04-11T10:10:28.921Z,101895.05
2019-04-11T10:13:18.483Z,101897.52
2019-04-11T10:16:07.604Z,101893.69
2019-04-11T10:18:53.876Z,101902.69
2019-04-11T10:21:24.689Z,101898.73
2019-04-11T10:23:56.806Z,101896.12
2019-04-11T10:26:27.796Z,101894.27
2019-04-11T10:29:14.885Z,101907.34
2019-04-11T10:31:46.401Z,101898.97
2019-04-11T10:34:17.543Z,101909.08
2019-04-11T10:36:48.019Z,101899.77
2019-04-11T10:39:21.542Z,101904.60
2019-04-11T10:41:51.829Z,101896.55
2019-04-11T10:44:22.052Z,101903.09
2019-04-11T10:46:52.412Z,101901.78
2019-04-11T10:49:22.472Z,101900.25
2019-04-11T10:51:56.048Z,101903.55
2019-04-11T10:54:26.043Z,101911.91
2019-04-11T10:57:12.534Z,101909.16
2019-04-11T10:59:45.387Z,101903.97
2019-04-11T11:02:31.778Z,101914.64
2019-04-11T11:05:01.007Z,101907.74
2019-04-11T11:07:31.274Z,101900.53
2019-04-11T11:10:01.480Z,101904.00
2019-04-11T11:12:32.859Z,101900.95
2019-04-11T11:15:09.488Z,101902.43
2019-04-11T11:18:25.139Z,101914.36
2019-04-11T11:20:49.852Z,101914.95
2019-04-11T11:23:33.082Z,101914.52
2019-04-11T11:26:12.600Z,101917.31
2019-04-11T11:28:43.188Z,101917.52
2019-04-11T11:31:31.815Z,101917.66
2019-04-11T11:34:00.897Z,101919.01
2019-04-11T11:36:43.768Z,101923.16
2019-04-11T11:39:33.334Z,101922.48
2019-04-11T11:42:19.933Z,101925.06
2019-04-11T11:44:53.334Z,101929.57
2019-04-11T11:47:41.506Z,101928.98
2019-04-11T11:50:20.090Z,101938.58
2019-04-11T11:52:55.542Z,101928.46
2019-04-11T11:55:25.708Z,101927.75
2019-04-11T11:57:57.176Z,101931.58
2019-04-11T12:00:27.210Z,101925.72
2019-04-11T12:02:57.301Z,101927.82
2019-04-11T12:05:29.398Z,101929.80
2019-04-11T12:08:17.869Z,101924.38
2019-04-11T12:10:51.436Z,101931.14
2019-04-11T12:13:40.721Z,101935.55
2019-04-11T12:16:19.314Z,101929.94
2019-04-11T12:18:52.680Z,101932.84
2019-04-11T12:21:27.892Z,101926.83
2019-04-11T12:24:03.763Z,101936.73
2019-04-11T12:26:33.306Z,101930.64
2019-04-11T12:29:03.828Z,101937.45
2019-04-11T12:31:35.490Z,101933.45
2019-04-11T12:34:22.033Z,101931.55
2019-04-11T12:36:52.679Z,101933.77
2019-04-11T12:39:25.455Z,101929.11
2019-04-11T12:41:55.859Z,101935.84
2019-04-11T12:44:26.709Z,101937.03
2019-04-11T12:47:07.847Z,101931.55
2019-04-11T12:49:52.956Z,101931.24
2019-04-11T12:52:31.292Z,101925.48
2019-04-11T12:55:17.961Z,101924.56
2019-04-11T12:58:00.029Z,101928.51
2019-04-11T13:00:33.057Z,101930.78
2019-04-11T13:03:03.240Z,101930.31
2019-04-11T13:05:33.639Z,101928.41
2019-04-11T13:08:09.571Z,101922.89
2019-04-11T13:10:40.053Z,101923.67
2019-04-11T13:13:10.175Z,101923.00
2019-04-11T13:15:40.326Z,101925.79
2019-04-11T13:18:16.142Z,101919.27
2019-04-11T13:20:49.237Z,101923.22
2019-04-11T13:23:35.588Z,101918.07
2019-04-11T13:26:11.940Z,101922.42
2019-04-11T13:28:42.116Z,101923.28
2019-04-11T13:31:28.335Z,101926.86
2019-04-11T13:33:58.445Z,101924.67
2019-04-11T13:36:28.513Z,101925.27
2019-04-11T13:38:57.001Z,101916.02
2019-04-11T13:41:43.225Z,101909.08
2019-04-11T13:44:13.342Z,101912.92
2019-04-11T13:46:46.276Z,101914.06
2019-04-11T13:49:16.509Z,101906.23
2019-04-11T13:51:46.610Z,101903.39
2019-04-11T13:54:22.256Z,101905.79
2019-04-11T13:57:10.601Z,101908.09
2019-04-11T13:59:57.112Z,101903.69
2019-04-11T14:02:27.275Z,101911.72
2019-04-11T14:05:00.207Z,101910.69
2019-04-11T14:07:30.699Z,101909.59
2019-04-11T14:10:01.585Z,101912.72
2019-04-11T14:12:33.118Z,101911.75
2019-04-11T14:15:05.947Z,101915.38
2019-04-11T14:17:34.180Z,101909.02
2019-04-11T14:20:08.775Z,101901.70
2019-04-11T14:22:56.014Z,101906.75
2019-04-11T14:25:42.349Z,101904.94
2019-04-11T14:28:12.469Z,101903.79
2019-04-11T14:30:54.838Z,101905.78
2019-04-11T14:33:27.201Z,101910.27
2019-04-11T14:35:57.776Z,101907.55
2019-04-11T14:38:32.093Z,101906.06
2019-04-11T14:41:15.751Z,101914.41
2019-04-11T14:43:46.452Z,101910.58
2019-04-11T14:46:25.554Z,101905.77
2019-04-11T14:48:55.951Z,101902.77
2019-04-11T14:51:41.198Z,101902.44
2019-04-11T14:54:11.915Z,101904.52
2019-04-11T14:56:52.128Z,101896.97
2019-04-11T14:59:29.708Z,101897.20
2019-04-11T15:02:02.806Z,101901.41
2019-04-11T15:04:48.944Z,101905.46
2019-04-11T15:07:19.138Z,101900.25
2019-04-11T15:10:05.663Z,101898.19
2019-04-11T15:12:38.060Z,101899.56
2019-04-11T15:15:25.082Z,101899.78
2019-04-11T15:17:55.852Z,101901.03
2019-04-11T15:20:26.619Z,101902.28
2019-04-11T15:22:59.502Z,101899.37
2019-04-11T15:25:29.672Z,101906.00
2019-04-11T15:28:12.587Z,101905.16
2019-04-11T15:30:58.363Z,101915.44
2019-04-11T15:33:45.101Z,101912.58
2019-04-11T15:36:18.215Z,101911.41
2019-04-11T15:39:04.537Z,101908.97
2019-04-11T15:41:33.476Z,101910.31
2019-04-11T15:44:19.903Z,101905.78
2019-04-11T15:46:48.544Z,101914.83
2019-04-11T15:49:29.836Z,101912.22
2019-04-11T15:51:53.502Z,101906.54
2019-04-11T15:54:41.997Z,101906.43
2019-04-11T15:57:14.648Z,101910.82
2019-04-11T16:00:03.429Z,101910.70
2019-04-11T16:02:42.738Z,101913.02
2019-04-11T16:05:15.915Z,101907.02
2019-04-11T16:08:02.187Z,101919.64
2019-04-11T16:10:32.337Z,101918.30
2019-04-11T16:13:08.607Z,101922.61
2019-04-11T16:15:40.611Z,101920.91
2019-04-11T16:18:19.739Z,101919.51
2019-04-11T16:20:51.648Z,101921.37
2019-04-11T16:23:25.760Z,101929.42
2019-04-11T16:25:52.940Z,101922.06
2019-04-11T16:28:38.988Z,101922.72
2019-04-11T16:31:09.825Z,101916.91
2019-04-11T16:33:45.665Z,101923.80
2019-04-11T16:36:20.405Z,101917.84
2019-04-11T16:38:50.772Z,101925.30
2019-04-11T16:41:37.005Z,101923.70
2019-04-11T16:44:12.585Z,101930.44
2019-04-11T16:46:59.157Z,101924.06
2019-04-11T16:49:28.051Z,101922.28
2019-04-11T16:51:56.518Z,101923.38
2019-04-11T16:54:25.050Z,101925.23
2019-04-11T16:56:53.504Z,101929.56
2019-04-11T16:59:22.045Z,101924.05
2019-04-11T17:01:53.478Z,101923.23
2019-04-11T17:04:20.816Z,101930.40
2019-04-11T17:06:51.047Z,101928.45
2019-04-11T17:09:36.288Z,101929.75
2019-04-11T17:12:04.756Z,101934.17
2019-04-11T17:14:33.754Z,101928.73
2019-04-11T17:17:14.295Z,101936.25
2019-04-11T17:19:35.828Z,101933.12
2019-04-11T17:22:03.894Z,101940.06
2019-04-11T17:24:32.381Z,101938.45
2019-04-11T17:27:01.298Z,101941.58
2019-04-11T17:29:29.827Z,101942.12
2019-04-11T17:31:58.391Z,101947.27
2019-04-11T17:34:26.869Z,101950.89
2019-04-11T17:36:55.378Z,101957.05
2019-04-11T17:39:23.890Z,101958.91
2019-04-11T17:41:52.352Z,101967.84
2019-04-11T17:44:21.166Z,101969.22
2019-04-11T17:46:49.613Z,101966.80
2019-04-11T17:49:18.104Z,101968.47
2019-04-11T17:51:55.607Z,101972.39
2019-04-11T17:54:16.825Z,101973.90
2019-04-11T17:56:48.055Z,101972.86
2019-04-11T17:59:16.551Z,101983.36
2019-04-11T18:01:45.197Z,101974.95
2019-04-11T18:04:18.884Z,101981.52
2019-04-11T18:06:48.458Z,101982.98
2019-04-11T18:09:16.976Z,101988.03
2019-04-11T18:11:45.416Z,101994.27
2019-04-11T18:14:13.949Z,101989.24
2019-04-11T18:16:42.445Z,102000.34
2019-04-11T18:19:10.878Z,102004.13
2019-04-11T18:21:39.371Z,102004.88
2019-04-11T18:24:08.465Z,102001.27
2019-04-11T18:26:36.971Z,102015.60
2019-04-11T18:29:05.434Z,102013.34
2019-04-11T18:31:34.047Z,102014.97
2019-04-11T18:34:02.679Z,102021.34
2019-04-11T18:36:32.568Z,102024.06
2019-04-11T18:39:05.643Z,102024.53
2019-04-11T18:41:31.412Z,102026.89
2019-04-11T18:43:59.906Z,102033.70
2019-04-11T18:46:28.498Z,102034.53
2019-04-11T18:48:57.342Z,102033.63
2019-04-11T18:51:25.838Z,102034.42
2019-04-11T18:53:54.297Z,102032.73
2019-04-11T18:56:22.875Z,102035.82
2019-04-11T18:58:51.379Z,102038.05
2019-04-11T19:01:20.009Z,102037.59
2019-04-11T19:03:48.469Z,102037.87
2019-04-11T19:06:27.404Z,102038.13
2019-04-11T19:08:47.306Z,102037.38
2019-04-11T19:11:16.347Z,102033.11
2019-04-11T19:13:47.019Z,102037.63
2019-04-11T19:16:16.094Z,102041.73
2019-04-11T19:18:47.801Z,102041.49
2019-04-11T19:21:15.492Z,102039.95
2019-04-11T19:23:43.961Z,102041.21
2019-04-11T19:26:14.547Z,102034.19
2019-04-11T19:28:42.896Z,102036.55
2019-04-11T19:31:12.389Z,102035.45
2019-04-11T19:33:41.227Z,102030.37
2019-04-11T19:36:10.046Z,102038.79
2019-04-11T19:38:42.985Z,102038.69
2019-04-11T19:41:10.068Z,102042.86
2019-04-11T19:43:40.772Z,102043.08
2019-04-11T19:46:08.751Z,102038.66
2019-04-11T19:48:37.387Z,102044.58
2019-04-11T19:51:05.922Z,102043.34
2019-04-11T19:53:34.727Z,102039.86
2019-04-11T19:56:07.611Z,102039.64
2019-04-11T19:58:36.167Z,102035.76
2019-04-11T20:01:04.844Z,102037.63
2019-04-11T20:03:33.361Z,102035.25
2019-04-11T20:06:01.918Z,102040.21
2019-04-11T20:08:30.540Z,102033.80
2019-04-11T20:11:01.260Z,102038.09
2019-04-11T20:13:32.212Z,102030.83
2019-04-11T20:16:00.716Z,102029.53
2019-04-11T20:18:29.190Z,102030.89
2019-04-11T20:20:57.683Z,102038.69
2019-04-11T20:23:26.210Z,102042.58
2019-04-11T20:25:54.662Z,102049.83
2019-04-11T20:28:23.155Z,102047.59
2019-04-11T20:30:51.608Z,102044.48
2019-04-11T20:33:27.095Z,102049.66
2019-04-11T20:35:50.370Z,102045.31
2019-04-11T20:38:18.817Z,102046.44
2019-04-11T20:40:47.372Z,102047.59
2019-04-11T20:43:15.823Z,102044.29
2019-04-11T20:45:45.058Z,102039.69
2019-04-11T20:48:13.490Z,102043.63
2019-04-11T20:50:41.990Z,102043.07
2019-04-11T20:53:12.970Z,102047.33
2019-04-11T20:55:40.797Z,102048.39
2019-04-11T20:58:10.360Z,102051.61
2019-04-11T21:00:49.603Z,102052.27
2019-04-11T21:03:10.072Z,102044.78
2019-04-11T21:05:38.662Z,102048.58
2019-04-11T21:08:07.171Z,102048.95
2019-04-11T21:10:35.807Z,102049.30
2019-04-11T21:13:06.940Z,102046.24
2019-04-11T21:15:34.704Z,102053.27
2019-04-11T21:18:03.183Z,102046.45
2019-04-11T21:20:31.685Z,102046.09
2019-04-11T21:23:00.189Z,102046.10
2019-04-11T21:25:29.124Z,102047.64
2019-04-11T21:27:59.081Z,102048.23
2019-04-11T21:30:30.124Z,102050.02
2019-04-11T21:32:58.086Z,102043.70
2019-04-11T21:35:26.603Z,102053.03
2019-04-11T21:37:55.104Z,102051.40
2019-04-11T21:40:23.546Z,102050.70
2019-04-11T21:42:52.201Z,102052.83
2019-04-11T21:45:20.647Z,102054.84
2019-04-11T21:47:49.358Z,102049.16
2019-04-11T21:50:17.872Z,102050.30
2019-04-11T21:52:46.376Z,102050.91
2019-04-11T21:55:16.099Z,102049.48
2019-04-11T21:57:48.316Z,102051.09
2019-04-11T22:00:22.144Z,102055.68
2019-04-11T22:02:48.671Z,102051.40
2019-04-11T22:05:17.282Z,102055.53
2019-04-11T22:07:45.785Z,102054.49
2019-04-11T22:10:14.816Z,102057.84
2019-04-11T22:12:43.331Z,102051.75
2019-04-11T22:15:12.553Z,102056.31
2019-04-11T22:17:42.906Z,102057.87
2019-04-11T22:20:11.499Z,102058.02
2019-04-11T22:22:39.966Z,102052.93
2019-04-11T22:25:08.588Z,102050.50
2019-04-11T22:27:37.044Z,102048.53
2019-04-11T22:30:07.828Z,102050.42
2019-04-11T22:32:36.274Z,102055.95
2019-04-11T22:35:06.047Z,102048.75
2019-04-11T22:37:34.502Z,102050.91
2019-04-11T22:40:03.751Z,102051.88
2019-04-11T22:42:32.235Z,102048.81
2019-04-11T22:45:00.701Z,102050.17
2019-04-11T22:47:29.891Z,102046.17
2019-04-11T22:49:58.358Z,102051.47
2019-04-11T22:52:26.825Z,102046.87
2019-04-11T22:54:55.288Z,102048.02
2019-04-11T22:57:23.720Z,102046.52
2019-04-11T22:59:52.190Z,102049.58
2019-04-11T23:02:22.738Z,102046.87
2019-04-11T23:04:51.227Z,102051.53
2019-04-11T23:07:19.667Z,102049.05
2019-04-11T23:09:48.959Z,102044.98
2019-04-11T23:12:17.977Z,102045.52
2019-04-11T23:14:46.464Z,102045.38
2019-04-11T23:17:14.996Z,102049.98
2019-04-11T23:19:44.173Z,102046.73
2019-04-11T23:22:13.201Z,102045.93
2019-04-11T23:24:41.753Z,102046.00
2019-04-11T23:27:10.220Z,102041.49
2019-04-11T23:29:38.675Z,102046.00
2019-04-11T23:32:07.235Z,102036.75
2019-04-11T23:34:35.882Z,102040.70
2019-04-11T23:37:04.329Z,102041.91
2019-04-11T23:39:32.892Z,102043.05
2019-04-11T23:42:01.341Z,102040.18
2019-04-11T23:44:29.822Z,102045.93
2019-04-11T23:46:58.310Z,102042.83
2019-04-11T23:49:26.878Z,102044.83
2019-04-11T23:51:56.446Z,102049.86
2019-04-11T23:54:28.952Z,102048.20
2019-04-11T23:56:55.093Z,102042.25
2019-04-11T23:59:23.571Z,102042.52
